Portada
METAR-TAF:

METAR-TAF

Aeropuertos :

Ghriss, Argelia

latitud: 35-12N, longitud: 000-08E, altitud: 514 m

Observación

El informe se hizo hace 18 minutos, a las 20:00 UTC
Viento 7 kt del sur-suroeste
Temperatura 14°C
Humedad 58%
Presión 1017 hPa
Visibilidad 10 km o más
sin nubes por debajo de 1500 m y sin presencia de cumulonimbus.

METAR: DAOV 212000Z 21007KT CAVOK 14/06 Q1017

Hora: 21:18 (20:18 UTC)

Pronóstico

El informe se hizo hace 3 horas y 18 minutos, a las 17:00 UTC
Pronóstico válido del 21 a las 18 UTC al 22 a las 03 UTC
Viento 10 kt del sur-suroeste
Visibilidad 10 km o más
Escasas nubes a una altura de 3000 ft
Nubes dispersas a una altura de 10000 ft
Evolucionando progresivamente
del 21 a las 20 UTC al 21 a las 22 UTC
Viento 2 kt con dirección variable

TAF: DAOV 211700Z 2118/2203 20010KT 9999 FEW030 SCT100 BECMG 2120/2122 VRB02KT

Observaciones y pronósticos meteorológicos de más de 4000 aeropuertos (mensajes METAR y TAF).

Los puntos amarillos y rojos representan las estaciones disponibles.

Ponga el ratón en el punto deseado para ver el nombre de la estación.

Haga clic para ver las observaciones y los pronósticos meteorológicos.

Para cambiar el mapa : haga clic en los botones verdes con una cruz de color negro para hacer un zoom, en el botón verde con un guión para alejar o en las flechas verdes para mapas adyacentes.


METAR-TAF: